Flight Track Log - Related Links

Times and Time Zones

All times are in EST time to prevent confusion due to time zone crossing. See the FLG3757 flight status page for this flight to view local times or setup timezone preferences in your user account.

Time Position Orientation Groundspeed Altitude Reporting Facility
EST Latitude Longitude Course Direction KTS MPH feet Rate Location/Type
Wed 06:27:38 AM 42.1822 -75.9706 289° West 145 167 3,100  Level New York Center
Wed 06:28:38 AM 42.1836 -76.0322 272° West 179 206 4,900 1,850 Climbing New York Center
Wed 06:29:38 AM 42.2069 -76.1150 291° West 204 235 6,800 2,500 Climbing New York Center
Wed 06:30:38 AM 42.2342 -76.2069 292° West 239 275 9,900 2,281 Climbing New York Center
Wed 06:32:29 AM 42.2897 -76.3917 292° West 305 351 13,300 1,884 Climbing Cleveland Center
Wed 06:33:00 AM 42.2285 -76.6560 289° West  Level Estimated
Wed 06:33:30 AM 42.3233 -76.5044 292° West 322 371 15,300  Level Cleveland Center
Wed 06:34:31 AM 42.3586 -76.6214 292° West 333 383 17,100 1,770 Climbing Cleveland Center
Wed 06:35:32 AM 42.3942 -76.7397 292° West 340 391 18,900 1,721 Climbing Cleveland Center
Wed 06:36:33 AM 42.4281 -76.8586 291° West 339 390 20,600 1,574 Climbing Cleveland Center
Wed 06:37:34 AM 42.4633 -76.9797 292° West 346 398 22,100 1,230 Climbing Cleveland Center
Wed 06:38:35 AM 42.4986 -77.1019 291° West 349 402 23,100 787 Climbing Cleveland Center
Wed 06:39:36 AM 42.5356 -77.2317 291° West 364 419 23,700 689 Climbing Cleveland Center
Wed 06:40:37 AM 42.5733 -77.3639 291° West 373 429 24,500 738 Climbing Cleveland Center
Wed 06:41:38 AM 42.5844 -77.5150 276° West 366 421 25,200 885 Climbing Cleveland Center
Wed 06:42:39 AM 42.5914 -77.6500 274° West 361 415 26,300 1,091 Climbing Cleveland Center
Wed 06:43:39 AM 42.5986 -77.7792 274° West 350 403 27,400 843 Climbing Cleveland Center
Wed 06:44:40 AM 42.6044 -77.9039 274° West 342 394 28,000 295 Climbing Cleveland Center
Wed 06:45:41 AM 42.6103 -78.0331 274° West 343 395 28,000  Level Cleveland Center
Wed 06:46:42 AM 42.6156 -78.1669 273° West 352 405 28,000  Level Cleveland Center
Wed 06:47:43 AM 42.6217 -78.3025 274° West 359 413 28,000  Level Cleveland Center
Wed 06:48:45 AM 42.6269 -78.4397 273° West 364 419 28,000  Level Cleveland Center
Wed 06:49:46 AM 42.6350 -78.6081 274° West 374 430 28,000  Level Cleveland Center
Wed 06:50:47 AM 42.6414 -78.7456 274° West 368 423 28,000  Level Cleveland Center
Wed 06:51:48 AM 42.6461 -78.8847 273° West 370 426 28,000  Level Cleveland Center
Wed 06:52:49 AM 42.6514 -79.0239 273° West 369 425 28,000  Level Cleveland Center
Wed 06:53:50 AM 42.6569 -79.1644 273° West 372 428 28,000  Level Cleveland Center
Wed 06:54:51 AM 42.6625 -79.3039 273° West 371 427 28,000  Level Cleveland Center
Wed 06:55:52 AM 42.6675 -79.4444 273° West 374 430 28,000  Level Cleveland Center
Wed 06:56:53 AM 42.6717 -79.5886 272° West 381 438 28,000  Level Cleveland Center
Wed 06:57:54 AM 42.6764 -79.7300 273° West 376 433 28,000  Level Cleveland Center
Wed 06:58:55 AM 42.6806 -79.8736 272° West 381 438 28,000  Level Cleveland Center
Wed 06:59:57 AM 42.6833 -80.0314 271° West 388 447 28,000  Level Cleveland Center
Wed 07:00:58 AM 42.6878 -80.1792 272° West 389 448 28,000  Level Cleveland Center
Wed 07:01:59 AM 42.6928 -80.3269 273° West 389 448 28,000 -197 Level Cleveland Center
Wed 07:03:00 AM 42.6958 -80.4767 272° West 393 452 27,600 -689 Descending Cleveland Center
Wed 07:04:01 AM 42.7003 -80.6258 272° West 393 452 26,600 -976 Descending Cleveland Center
Wed 07:05:03 AM 42.7028 -80.7733 271° West 389 448 25,600 -1,024 Descending Cleveland Center
Wed 07:06:04 AM 42.7008 -80.9267 269° West 392 451 24,500 -1,082 Descending Cleveland Center
Wed 07:07:05 AM 42.6833 -81.0861 262° West 375 432 23,400 -1,033 Descending Cleveland Center
Wed 07:08:06 AM 42.6700 -81.2164 262° West 348 400 22,400 -976 Descending Cleveland Center
Wed 07:09:08 AM 42.6542 -81.3419 260° West 337 388 21,400 -976 Descending Cleveland Center
Wed 07:10:09 AM 42.6394 -81.4700 261° West 340 391 20,400 -689 Descending Cleveland Center
Wed 07:11:10 AM 42.6242 -81.5981 261° West 342 394 20,000 -195 Descending Cleveland Center
Wed 07:12:12 AM 42.6069 -81.7328 260° West 359 413 20,000  Level Cleveland Center
Wed 07:13:13 AM 42.5908 -81.8722 261° West 371 427 20,000  Level Cleveland Center
Wed 07:14:14 AM 42.5747 -82.0086 261° West 368 423 20,000 -976 Level Cleveland Center
Wed 07:15:16 AM 42.5589 -82.1436 261° West 364 419 18,000 -1,951 Descending Cleveland Center
Wed 07:16:17 AM 42.5408 -82.2731 259° West 354 407 16,000 -2,148 Descending Cleveland Center
Wed 07:16:37 AM 42.5353 -82.3322 263° West 347 399 15,100 -2,526 Descending Cleveland Center
Wed 07:16:55 AM 42.5303 -82.3739 261° West 348 400 14,400 -1,610 Descending Cleveland Center
Wed 07:17:18 AM 42.5258 -82.4011 258° West 347 399 14,000 -1,553 Descending Cleveland Center
Wed 07:18:20 AM 42.5094 -82.5286 260° West 346 398 12,200 -1,455 Descending Cleveland Center
Wed 07:18:57 AM 42.4817 -82.6222 248° West 339 390 11,600 -984 Descending Cleveland Center
Wed 07:19:21 AM 42.4650 -82.6644 242° Southwest 334 384 11,200 -984 Descending Cleveland Center
Wed 07:19:58 AM 42.4450 -82.7222 245° Southwest 259 298 10,600 -1,065 Descending Cleveland Center
Wed 07:20:23 AM 42.4333 -82.7539 243° Southwest 281 323 10,100 -1,475 Descending Cleveland Center
Wed 07:20:59 AM 42.4161 -82.8061 246° West 245 282 9,100 -1,475 Descending Cleveland Center
Wed 07:21:24 AM 42.4039 -82.8356 241° Southwest 250 288 8,600 -1,455 Descending Cleveland Center
Wed 07:22:05 AM 42.3819 -82.8975 244° Southwest 245 282 7,500 -1,452 Descending Cleveland Center
Wed 07:22:26 AM 42.3794 -82.9211 262° West 250 288 7,100 -590 Descending Cleveland Center
Wed 07:23:06 AM 42.3903 -82.9833 283° West 213 245 6,900 -393 Descending Cleveland Center
Wed 07:23:27 AM 42.3933 -83.0014 283° West 224 258 6,700 -885 Descending Cleveland Center
Wed 07:24:07 AM 42.4036 -83.0586 284° West 194 223 6,000 -885 Descending Cleveland Center
Wed 07:24:28 AM 42.4050 -83.0719 278° West 200 230 5,800 -1,254 Descending Cleveland Center
Wed 07:25:14 AM 42.4103 -83.1358 276° West 191 220 4,600 -1,258 Descending Cleveland Center
Wed 07:25:30 AM 42.4094 -83.1406 257° West 189 217 4,500 -885 Descending Cleveland Center
Wed 07:26:15 AM 42.3928 -83.2014 250° West 179 206 3,700 -787 Descending Cleveland Center
Wed 07:26:31 AM 42.3919 -83.2039 246° West 184 212 3,700 -492 Level Cleveland Center
Wed 07:27:16 AM 42.3525 -83.2353 210° Southwest 159 183 3,200 -581 Descending Cleveland Center
Wed 07:27:33 AM 42.3447 -83.2425 214° Southwest 172 198 3,100 -218 Descending Cleveland Center
Wed 07:28:11 AM 42.3214 -83.2592 208° Southwest 150 173 3,000 -295 Descending Cleveland Center
Wed 07:28:34 AM 42.3089 -83.2689 210° Southwest 158 182 2,800 -700 Descending Cleveland Center
Wed 07:29:11 AM 42.2858 -83.2853 208° Southwest 123 142 2,300 -689 Descending Cleveland Center
Wed 07:29:35 AM 42.2778 -83.2917 210° Southwest 141 162 2,100 -689 Descending Cleveland Center
Wed 07:30:12 AM 42.2569 -83.3067 208° Southwest 123 142 1,600 -677 Descending Cleveland Center
Wed 07:30:37 AM 42.2478 -83.3136 209° Southwest 129 148 1,400 -689 Descending Cleveland Center
Wed 07:31:13 AM 42.2281 -83.3278 208° Southwest 122 140 900 -393 Descending Cleveland Center
Wed 07:31:38 AM 42.2214 -83.3331 210° Southwest 125 144 1,000 240 Climbing Cleveland Center
Wed 07:33:00 AM 42.2124 -83.3534 211° Southwest  Level Estimated
Wed 07:40:00 AM 42.2124 -83.3534 211° Southwest  Level Estimated

Login

Don't have an account? Register now (free) for customized features, flight alerts, and more!